XNO35P SUMU-SAZS
Flight info
| Callsign | XNO35P |
|---|---|
| Flight time | 2h 5m |
| Altitude | 40000 |
| Route | CRR DCT DARKA DCT GBE DCT EGOKO DCT ORERA |
| Aircraft | B772/H-SDE2E3FGHIJ5LORVWXY/LB1D1 |
Departure
| Time | 2026-05-06 02:37 |
|---|---|
| Airport | Carrasco General Cesáreo L. Berisso International Airport (SUMU) |
Arrival
| Time | 2026-05-06 04:42 |
|---|---|
| Airport | Teniente Luis Candelaria International Airport (SAZS) |
| Time | Latitude | Longitude | Altitude | Speed | Heading |
|---|---|---|---|---|---|
| 2026-05-06 02:08 | -34.83656 | -56.01864 | 95 ft | 0 kts | 114° |
| 2026-05-06 02:27 | -34.83651 | -56.01879 | 94 ft | 4 kts | 109° |
| 2026-05-06 02:27 | -34.83642 | -56.01910 | 93 ft | 4 kts | 108° |
| 2026-05-06 02:27 | -34.83635 | -56.01941 | 94 ft | 3 kts | 95° |
| 2026-05-06 02:28 | -34.83634 | -56.01952 | 94 ft | 0 kts | 94° |
| 2026-05-06 02:31 | -34.83634 | -56.01951 | 94 ft | 1 kts | 92° |
| 2026-05-06 02:31 | -34.83623 | -56.01935 | 95 ft | 5 kts | 41° |
| 2026-05-06 02:31 | -34.83579 | -56.01891 | 100 ft | 10 kts | 39° |
| 2026-05-06 02:32 | -34.83539 | -56.01842 | 100 ft | 8 kts | 48° |
| 2026-05-06 02:32 | -34.83488 | -56.01775 | 103 ft | 17 kts | 32° |
| 2026-05-06 02:32 | -34.83385 | -56.01820 | 102 ft | 17 kts | 323° |
| 2026-05-06 02:32 | -34.83292 | -56.01846 | 103 ft | 12 kts | 34° |
| 2026-05-06 02:33 | -34.83245 | -56.01779 | 104 ft | 9 kts | 55° |
| 2026-05-06 02:33 | -34.83221 | -56.01736 | 105 ft | 9 kts | 55° |
| 2026-05-06 02:33 | -34.83133 | -56.01587 | 108 ft | 10 kts | 53° |
| 2026-05-06 02:34 | -34.83095 | -56.01525 | 110 ft | 19 kts | 53° |
| 2026-05-06 02:34 | -34.83008 | -56.01385 | 111 ft | 21 kts | 53° |
| 2026-05-06 02:34 | -34.82924 | -56.01244 | 112 ft | 21 kts | 53° |
| 2026-05-06 02:34 | -34.82820 | -56.01146 | 115 ft | 18 kts | 6° |
| 2026-05-06 02:35 | -34.82722 | -56.01182 | 115 ft | 13 kts | 316° |
| 2026-05-06 02:35 | -34.82733 | -56.01268 | 114 ft | 2 kts | 233° |
| 2026-05-06 02:36 | -34.82733 | -56.01269 | 114 ft | 0 kts | 233° |
| 2026-05-06 02:36 | -34.82879 | -56.01509 | 110 ft | 76 kts | 233° |
| 2026-05-06 02:37 | -34.83346 | -56.02271 | 97 ft | 147 kts | 233° |
| 2026-05-06 02:37 | -34.84050 | -56.03436 | 311 ft | 183 kts | 233° |
| 2026-05-06 02:37 | -34.84811 | -56.04713 | 1138 ft | 188 kts | 235° |
| 2026-05-06 02:37 | -34.85598 | -56.05985 | 2067 ft | 187 kts | 234° |
| 2026-05-06 02:38 | -34.86490 | -56.07210 | 2414 ft | 207 kts | 220° |
| 2026-05-06 02:38 | -34.87819 | -56.08070 | 2632 ft | 230 kts | 199° |
| 2026-05-06 02:38 | -34.89422 | -56.08663 | 2915 ft | 250 kts | 197° |
| 2026-05-06 02:38 | -34.91136 | -56.09269 | 3494 ft | 260 kts | 198° |
| 2026-05-06 02:39 | -34.92852 | -56.09936 | 4337 ft | 256 kts | 198° |
| 2026-05-06 02:39 | -34.94576 | -56.10600 | 4973 ft | 265 kts | 201° |
| 2026-05-06 02:39 | -34.96340 | -56.11339 | 5648 ft | 270 kts | 202° |
| 2026-05-06 02:39 | -34.98125 | -56.12089 | 6430 ft | 271 kts | 202° |
| 2026-05-06 02:40 | -34.99913 | -56.12834 | 7169 ft | 273 kts | 201° |
| 2026-05-06 02:40 | -35.01720 | -56.13580 | 7842 ft | 276 kts | 201° |
| 2026-05-06 02:40 | -35.03522 | -56.14385 | 8431 ft | 275 kts | 210° |
| 2026-05-06 02:40 | -35.04908 | -56.15966 | 8890 ft | 279 kts | 243° |
| 2026-05-06 02:41 | -35.05574 | -56.18176 | 9425 ft | 280 kts | 251° |
| 2026-05-06 02:41 | -35.06229 | -56.20447 | 9974 ft | 286 kts | 249° |
| 2026-05-06 02:41 | -35.06931 | -56.22749 | 10436 ft | 298 kts | 249° |
| 2026-05-06 02:41 | -35.07692 | -56.25208 | 10606 ft | 322 kts | 249° |
| 2026-05-06 02:42 | -35.08518 | -56.27861 | 10791 ft | 346 kts | 249° |
| 2026-05-06 02:42 | -35.09394 | -56.30663 | 11351 ft | 358 kts | 249° |
| 2026-05-06 02:42 | -35.10292 | -56.33529 | 12181 ft | 364 kts | 249° |
| 2026-05-06 02:42 | -35.11202 | -56.36428 | 13126 ft | 368 kts | 250° |
| 2026-05-06 02:43 | -35.12125 | -56.39364 | 14065 ft | 372 kts | 250° |
| 2026-05-06 02:43 | -35.13055 | -56.42323 | 15009 ft | 375 kts | 250° |
| 2026-05-06 02:43 | -35.13993 | -56.45307 | 15985 ft | 377 kts | 250° |
| 2026-05-06 02:43 | -35.14937 | -56.48314 | 16942 ft | 381 kts | 250° |
| 2026-05-06 02:44 | -35.15891 | -56.51353 | 17881 ft | 385 kts | 250° |
| 2026-05-06 02:44 | -35.16855 | -56.54428 | 18749 ft | 389 kts | 250° |
| 2026-05-06 02:44 | -35.17827 | -56.57533 | 19581 ft | 393 kts | 250° |
| 2026-05-06 02:44 | -35.18808 | -56.60669 | 20430 ft | 397 kts | 251° |
| 2026-05-06 02:45 | -35.19798 | -56.63835 | 21261 ft | 401 kts | 251° |
| 2026-05-06 02:45 | -35.20795 | -56.67029 | 22071 ft | 404 kts | 251° |
| 2026-05-06 02:45 | -35.21802 | -56.70258 | 22863 ft | 408 kts | 251° |
| 2026-05-06 02:45 | -35.22802 | -56.73469 | 23588 ft | 412 kts | 251° |
| 2026-05-06 02:46 | -35.23838 | -56.76800 | 24202 ft | 416 kts | 251° |
| 2026-05-06 02:46 | -35.24856 | -56.80073 | 24827 ft | 418 kts | 251° |
| 2026-05-06 02:46 | -35.25890 | -56.83404 | 25475 ft | 419 kts | 251° |
| 2026-05-06 02:46 | -35.26928 | -56.86747 | 26123 ft | 421 kts | 251° |
| 2026-05-06 02:47 | -35.27969 | -56.90107 | 26688 ft | 424 kts | 251° |
| 2026-05-06 02:47 | -35.29016 | -56.93492 | 27194 ft | 427 kts | 251° |
| 2026-05-06 02:47 | -35.30070 | -56.96903 | 27708 ft | 430 kts | 251° |
| 2026-05-06 02:47 | -35.31129 | -57.00333 | 28186 ft | 432 kts | 251° |
| 2026-05-06 02:48 | -35.32194 | -57.03786 | 28664 ft | 435 kts | 251° |
| 2026-05-06 02:48 | -35.33263 | -57.07259 | 29113 ft | 437 kts | 251° |
| 2026-05-06 02:48 | -35.34337 | -57.10750 | 29523 ft | 439 kts | 251° |
| 2026-05-06 02:48 | -35.35415 | -57.14258 | 29944 ft | 441 kts | 252° |
| 2026-05-06 02:49 | -35.36495 | -57.17776 | 30281 ft | 442 kts | 252° |
| 2026-05-06 02:49 | -35.37579 | -57.21314 | 30559 ft | 444 kts | 252° |
| 2026-05-06 02:49 | -35.38666 | -57.24864 | 30817 ft | 446 kts | 252° |
| 2026-05-06 02:49 | -35.39754 | -57.28420 | 31093 ft | 447 kts | 252° |
| 2026-05-06 02:50 | -35.40844 | -57.31988 | 31450 ft | 445 kts | 252° |
| 2026-05-06 02:50 | -35.41925 | -57.35533 | 31863 ft | 443 kts | 252° |
| 2026-05-06 02:50 | -35.43001 | -57.39062 | 32301 ft | 441 kts | 252° |
| 2026-05-06 02:50 | -35.44070 | -57.42573 | 32745 ft | 438 kts | 252° |
| 2026-05-06 02:51 | -35.45130 | -57.46060 | 33133 ft | 437 kts | 252° |
| 2026-05-06 02:51 | -35.46189 | -57.49550 | 33509 ft | 436 kts | 252° |
| 2026-05-06 02:51 | -35.47243 | -57.53028 | 33898 ft | 434 kts | 252° |
| 2026-05-06 02:51 | -35.48292 | -57.56493 | 34269 ft | 432 kts | 252° |
| 2026-05-06 02:52 | -35.49332 | -57.59930 | 34663 ft | 429 kts | 252° |
| 2026-05-06 02:52 | -35.50365 | -57.63349 | 35109 ft | 425 kts | 252° |
| 2026-05-06 02:52 | -35.51388 | -57.66741 | 35560 ft | 421 kts | 252° |
| 2026-05-06 02:52 | -35.52401 | -57.70098 | 36022 ft | 417 kts | 252° |
| 2026-05-06 02:53 | -35.53401 | -57.73422 | 36427 ft | 415 kts | 252° |
| 2026-05-06 02:53 | -35.54398 | -57.76739 | 36786 ft | 413 kts | 252° |
| 2026-05-06 02:53 | -35.55389 | -57.80041 | 37141 ft | 411 kts | 252° |
| 2026-05-06 02:53 | -35.56374 | -57.83323 | 37517 ft | 408 kts | 252° |
| 2026-05-06 02:54 | -35.57349 | -57.86580 | 37867 ft | 406 kts | 252° |
| 2026-05-06 02:54 | -35.58321 | -57.89827 | 38239 ft | 404 kts | 252° |
| 2026-05-06 02:54 | -35.59287 | -57.93058 | 38595 ft | 402 kts | 252° |
| 2026-05-06 02:54 | -35.60247 | -57.96275 | 38858 ft | 401 kts | 252° |
| 2026-05-06 02:55 | -35.61206 | -57.99491 | 39025 ft | 401 kts | 253° |
| 2026-05-06 02:55 | -35.62165 | -58.02712 | 39190 ft | 402 kts | 253° |
| 2026-05-06 02:55 | -35.63125 | -58.05942 | 39362 ft | 402 kts | 253° |
| 2026-05-06 02:55 | -35.64083 | -58.09164 | 39559 ft | 401 kts | 253° |
| 2026-05-06 02:56 | -35.65040 | -58.12386 | 39746 ft | 401 kts | 253° |
| 2026-05-06 02:56 | -35.65996 | -58.15610 | 39889 ft | 402 kts | 253° |
| 2026-05-06 02:56 | -35.66956 | -58.18854 | 39938 ft | 404 kts | 253° |
| 2026-05-06 02:57 | -35.68878 | -58.25353 | 39993 ft | 404 kts | 253° |
| 2026-05-06 02:57 | -35.70785 | -58.31815 | 40005 ft | 401 kts | 253° |
| 2026-05-06 02:58 | -35.72678 | -58.38246 | 40006 ft | 399 kts | 253° |
| 2026-05-06 02:58 | -35.74675 | -58.44625 | 40011 ft | 401 kts | 249° |
| 2026-05-06 02:59 | -35.77345 | -58.50637 | 39997 ft | 406 kts | 242° |
| 2026-05-06 02:59 | -35.80522 | -58.56392 | 39993 ft | 407 kts | 241° |
| 2026-05-06 03:00 | -35.83726 | -58.62150 | 40014 ft | 407 kts | 241° |
| 2026-05-06 03:00 | -35.86919 | -58.67918 | 40000 ft | 407 kts | 241° |
| 2026-05-06 03:01 | -35.90101 | -58.73696 | 40011 ft | 408 kts | 242° |
| 2026-05-06 03:01 | -35.93294 | -58.79511 | 40002 ft | 410 kts | 242° |
| 2026-05-06 03:02 | -35.96490 | -58.85343 | 40002 ft | 411 kts | 242° |
| 2026-05-06 03:02 | -35.99699 | -58.91210 | 39999 ft | 412 kts | 242° |
| 2026-05-06 03:03 | -36.02908 | -58.97084 | 39999 ft | 413 kts | 242° |
| 2026-05-06 03:03 | -36.06123 | -59.02980 | 40010 ft | 414 kts | 242° |
| 2026-05-06 03:04 | -36.09340 | -59.08890 | 40002 ft | 414 kts | 242° |
| 2026-05-06 03:04 | -36.12555 | -59.14804 | 39999 ft | 414 kts | 242° |
| 2026-05-06 03:05 | -36.15761 | -59.20716 | 40001 ft | 414 kts | 242° |
| 2026-05-06 03:05 | -36.18965 | -59.26630 | 39999 ft | 413 kts | 242° |
| 2026-05-06 03:06 | -36.22161 | -59.32543 | 40025 ft | 413 kts | 242° |
| 2026-05-06 03:06 | -36.25330 | -59.38414 | 40013 ft | 412 kts | 242° |
| 2026-05-06 03:07 | -36.28511 | -59.44319 | 40003 ft | 411 kts | 242° |
| 2026-05-06 03:07 | -36.31683 | -59.50217 | 40000 ft | 411 kts | 242° |
| 2026-05-06 03:08 | -36.34843 | -59.56103 | 40019 ft | 410 kts | 242° |
| 2026-05-06 03:08 | -36.38001 | -59.61996 | 40021 ft | 410 kts | 242° |
| 2026-05-06 03:09 | -36.41152 | -59.67887 | 40003 ft | 409 kts | 242° |
| 2026-05-06 03:09 | -36.44263 | -59.73710 | 39999 ft | 408 kts | 242° |
| 2026-05-06 03:10 | -36.47398 | -59.79590 | 39999 ft | 408 kts | 242° |
| 2026-05-06 03:10 | -36.50523 | -59.85460 | 40001 ft | 407 kts | 242° |
| 2026-05-06 03:11 | -36.53643 | -59.91333 | 40016 ft | 407 kts | 242° |
| 2026-05-06 03:11 | -36.56757 | -59.97205 | 39999 ft | 406 kts | 242° |
| 2026-05-06 03:12 | -36.59864 | -60.03072 | 40000 ft | 406 kts | 242° |
| 2026-05-06 03:12 | -36.62964 | -60.08936 | 40000 ft | 405 kts | 242° |
| 2026-05-06 03:13 | -36.66055 | -60.14795 | 40008 ft | 405 kts | 242° |
| 2026-05-06 03:13 | -36.69145 | -60.20661 | 40005 ft | 405 kts | 243° |
| 2026-05-06 03:14 | -36.72229 | -60.26525 | 40003 ft | 404 kts | 243° |
| 2026-05-06 03:14 | -36.75304 | -60.32382 | 39999 ft | 403 kts | 243° |
| 2026-05-06 03:15 | -36.78371 | -60.38236 | 40034 ft | 403 kts | 243° |
| 2026-05-06 03:15 | -36.81412 | -60.44048 | 40008 ft | 403 kts | 243° |
| 2026-05-06 03:16 | -36.84467 | -60.49900 | 40014 ft | 402 kts | 243° |
| 2026-05-06 03:16 | -36.87519 | -60.55754 | 39996 ft | 402 kts | 243° |
| 2026-05-06 03:17 | -36.90566 | -60.61608 | 39995 ft | 401 kts | 243° |
| 2026-05-06 03:17 | -36.93604 | -60.67456 | 39997 ft | 401 kts | 243° |
| 2026-05-06 03:18 | -36.96637 | -60.73305 | 39996 ft | 401 kts | 243° |
| 2026-05-06 03:18 | -36.99669 | -60.79161 | 39998 ft | 401 kts | 243° |
| 2026-05-06 03:19 | -37.02699 | -60.85025 | 39999 ft | 401 kts | 243° |
| 2026-05-06 03:19 | -37.05727 | -60.90896 | 39994 ft | 402 kts | 243° |
| 2026-05-06 03:20 | -37.10273 | -60.99726 | 39992 ft | 402 kts | 243° |
| 2026-05-06 03:20 | -37.13301 | -61.05622 | 39998 ft | 402 kts | 244° |
| 2026-05-06 03:21 | -37.16331 | -61.11531 | 39988 ft | 403 kts | 244° |
| 2026-05-06 03:21 | -37.19357 | -61.17444 | 39990 ft | 403 kts | 244° |
| 2026-05-06 03:22 | -37.22384 | -61.23370 | 39989 ft | 404 kts | 244° |
| 2026-05-06 03:22 | -37.25414 | -61.29311 | 40003 ft | 405 kts | 244° |
| 2026-05-06 03:23 | -37.27936 | -61.34264 | 40003 ft | 405 kts | 244° |
| 2026-05-06 03:23 | -37.30967 | -61.40227 | 39993 ft | 406 kts | 244° |
| 2026-05-06 03:24 | -37.34005 | -61.46214 | 39991 ft | 406 kts | 244° |
| 2026-05-06 03:24 | -37.37038 | -61.52201 | 39992 ft | 406 kts | 244° |
| 2026-05-06 03:25 | -37.40073 | -61.58205 | 39994 ft | 407 kts | 244° |
| 2026-05-06 03:25 | -37.43101 | -61.64205 | 39991 ft | 407 kts | 244° |
| 2026-05-06 03:26 | -37.46132 | -61.70220 | 39995 ft | 407 kts | 244° |
| 2026-05-06 03:26 | -37.49154 | -61.76231 | 39994 ft | 406 kts | 244° |
| 2026-05-06 03:27 | -37.52172 | -61.82243 | 39993 ft | 406 kts | 244° |
| 2026-05-06 03:27 | -37.55188 | -61.88263 | 39994 ft | 406 kts | 244° |
| 2026-05-06 03:28 | -37.58196 | -61.94277 | 39997 ft | 406 kts | 244° |
| 2026-05-06 03:28 | -37.61207 | -62.00309 | 40003 ft | 406 kts | 244° |
| 2026-05-06 03:29 | -37.64219 | -62.06354 | 40006 ft | 407 kts | 244° |
| 2026-05-06 03:29 | -37.67224 | -62.12396 | 40007 ft | 407 kts | 244° |
| 2026-05-06 03:30 | -37.70234 | -62.18460 | 39992 ft | 407 kts | 244° |
| 2026-05-06 03:30 | -37.73241 | -62.24528 | 39998 ft | 408 kts | 244° |
| 2026-05-06 03:31 | -37.76250 | -62.30613 | 39998 ft | 409 kts | 244° |
| 2026-05-06 03:31 | -37.79266 | -62.36720 | 39991 ft | 409 kts | 244° |
| 2026-05-06 03:32 | -37.82277 | -62.42830 | 39977 ft | 410 kts | 245° |
| 2026-05-06 03:32 | -37.85287 | -62.48950 | 39983 ft | 410 kts | 245° |
| 2026-05-06 03:33 | -37.88293 | -62.55072 | 39986 ft | 410 kts | 245° |
| 2026-05-06 03:33 | -37.91299 | -62.61208 | 39981 ft | 410 kts | 245° |
| 2026-05-06 03:34 | -37.94305 | -62.67353 | 39980 ft | 411 kts | 245° |
| 2026-05-06 03:34 | -37.97308 | -62.73506 | 39973 ft | 411 kts | 245° |
| 2026-05-06 03:35 | -38.00310 | -62.79666 | 39976 ft | 410 kts | 245° |
| 2026-05-06 03:35 | -38.03308 | -62.85829 | 39980 ft | 411 kts | 245° |
| 2026-05-06 03:36 | -38.06302 | -62.91998 | 39970 ft | 411 kts | 245° |
| 2026-05-06 03:36 | -38.09300 | -62.98185 | 39969 ft | 411 kts | 245° |
| 2026-05-06 03:37 | -38.12291 | -63.04370 | 39978 ft | 412 kts | 245° |
| 2026-05-06 03:37 | -38.15295 | -63.10594 | 39971 ft | 413 kts | 245° |
| 2026-05-06 03:38 | -38.18293 | -63.16817 | 39969 ft | 413 kts | 245° |
| 2026-05-06 03:38 | -38.21291 | -63.23052 | 39971 ft | 413 kts | 245° |
| 2026-05-06 03:39 | -38.24289 | -63.29299 | 39952 ft | 414 kts | 245° |
| 2026-05-06 03:39 | -38.27282 | -63.35549 | 39954 ft | 413 kts | 245° |
| 2026-05-06 03:40 | -38.30270 | -63.41798 | 39949 ft | 414 kts | 245° |
| 2026-05-06 03:40 | -38.33259 | -63.48062 | 39961 ft | 414 kts | 246° |
| 2026-05-06 03:41 | -38.36246 | -63.54335 | 39957 ft | 414 kts | 246° |
| 2026-05-06 03:41 | -38.39227 | -63.60609 | 39962 ft | 414 kts | 246° |
| 2026-05-06 03:42 | -38.42207 | -63.66891 | 39958 ft | 414 kts | 246° |
| 2026-05-06 03:42 | -38.45187 | -63.73187 | 39953 ft | 415 kts | 246° |
| 2026-05-06 03:43 | -38.48167 | -63.79493 | 39962 ft | 416 kts | 246° |
| 2026-05-06 03:43 | -38.51157 | -63.85835 | 39959 ft | 417 kts | 246° |
| 2026-05-06 03:44 | -38.54150 | -63.92195 | 39955 ft | 419 kts | 246° |
| 2026-05-06 03:44 | -38.57149 | -63.98581 | 39956 ft | 420 kts | 246° |
| 2026-05-06 03:45 | -38.60154 | -64.04992 | 39969 ft | 421 kts | 246° |
| 2026-05-06 03:45 | -38.63162 | -64.11420 | 39953 ft | 422 kts | 246° |
| 2026-05-06 03:46 | -38.66174 | -64.17872 | 39950 ft | 423 kts | 246° |
| 2026-05-06 03:46 | -38.69185 | -64.24334 | 39950 ft | 423 kts | 246° |
| 2026-05-06 03:47 | -38.72196 | -64.30810 | 39946 ft | 423 kts | 246° |
| 2026-05-06 03:47 | -38.75205 | -64.37294 | 39957 ft | 424 kts | 246° |
| 2026-05-06 03:48 | -38.78196 | -64.43753 | 39945 ft | 424 kts | 246° |
| 2026-05-06 03:48 | -38.81203 | -64.50262 | 39941 ft | 424 kts | 246° |
| 2026-05-06 03:49 | -38.84209 | -64.56777 | 39939 ft | 425 kts | 246° |
| 2026-05-06 03:49 | -38.87006 | -64.63408 | 39938 ft | 421 kts | 249° |
| 2026-05-06 03:50 | -38.89660 | -64.70109 | 39934 ft | 421 kts | 250° |
| 2026-05-06 03:50 | -38.92304 | -64.76814 | 39932 ft | 421 kts | 250° |
| 2026-05-06 03:51 | -38.94960 | -64.83534 | 39927 ft | 421 kts | 250° |
| 2026-05-06 03:51 | -38.97612 | -64.90243 | 39944 ft | 422 kts | 250° |
| 2026-05-06 03:52 | -39.00284 | -64.97014 | 39936 ft | 422 kts | 250° |
| 2026-05-06 03:52 | -39.02942 | -65.03763 | 39938 ft | 424 kts | 250° |
| 2026-05-06 03:53 | -39.05604 | -65.10536 | 39923 ft | 424 kts | 250° |
| 2026-05-06 03:53 | -39.08266 | -65.17325 | 39922 ft | 425 kts | 250° |
| 2026-05-06 03:54 | -39.10909 | -65.24082 | 39914 ft | 426 kts | 250° |
| 2026-05-06 03:54 | -39.13567 | -65.30891 | 39929 ft | 426 kts | 250° |
| 2026-05-06 03:55 | -39.16229 | -65.37728 | 39922 ft | 427 kts | 250° |
| 2026-05-06 03:55 | -39.18894 | -65.44586 | 39920 ft | 428 kts | 250° |
| 2026-05-06 03:56 | -39.21560 | -65.51461 | 39914 ft | 429 kts | 250° |
| 2026-05-06 03:56 | -39.24224 | -65.58347 | 39912 ft | 429 kts | 250° |
| 2026-05-06 03:57 | -39.26888 | -65.65252 | 39923 ft | 430 kts | 250° |
| 2026-05-06 03:57 | -39.29556 | -65.72181 | 39913 ft | 431 kts | 250° |
| 2026-05-06 03:58 | -39.32224 | -65.79126 | 39909 ft | 432 kts | 250° |
| 2026-05-06 03:58 | -39.34887 | -65.86074 | 39909 ft | 432 kts | 250° |
| 2026-05-06 03:59 | -39.37551 | -65.93038 | 39910 ft | 432 kts | 250° |
| 2026-05-06 03:59 | -39.40212 | -66.00013 | 39910 ft | 433 kts | 250° |
| 2026-05-06 04:00 | -39.42854 | -66.06953 | 39911 ft | 433 kts | 250° |
| 2026-05-06 04:00 | -39.45507 | -66.13939 | 39901 ft | 433 kts | 250° |
| 2026-05-06 04:01 | -39.48159 | -66.20942 | 39911 ft | 433 kts | 250° |
| 2026-05-06 04:01 | -39.50808 | -66.27949 | 39917 ft | 434 kts | 250° |
| 2026-05-06 04:02 | -39.53454 | -66.34967 | 39894 ft | 433 kts | 250° |
| 2026-05-06 04:02 | -39.56092 | -66.41979 | 39908 ft | 433 kts | 250° |
| 2026-05-06 04:03 | -39.58727 | -66.49000 | 39911 ft | 433 kts | 250° |
| 2026-05-06 04:03 | -39.61356 | -66.56021 | 39909 ft | 433 kts | 250° |
| 2026-05-06 04:04 | -39.63980 | -66.63047 | 39901 ft | 433 kts | 250° |
| 2026-05-06 04:04 | -39.66602 | -66.70083 | 39908 ft | 433 kts | 250° |
| 2026-05-06 04:05 | -39.69219 | -66.77124 | 39898 ft | 434 kts | 250° |
| 2026-05-06 04:05 | -39.71837 | -66.84183 | 39901 ft | 433 kts | 250° |
| 2026-05-06 04:06 | -39.74005 | -66.90040 | 39913 ft | 434 kts | 250° |
| 2026-05-06 04:06 | -39.76613 | -66.97105 | 39905 ft | 434 kts | 250° |
| 2026-05-06 04:07 | -39.79649 | -67.05348 | 39901 ft | 435 kts | 250° |
| 2026-05-06 04:07 | -39.82260 | -67.12459 | 39901 ft | 436 kts | 250° |
| 2026-05-06 04:08 | -39.84447 | -67.18425 | 39903 ft | 436 kts | 250° |
| 2026-05-06 04:08 | -39.87052 | -67.25549 | 39912 ft | 437 kts | 250° |
| 2026-05-06 04:09 | -39.89661 | -67.32702 | 39909 ft | 438 kts | 250° |
| 2026-05-06 04:09 | -39.92268 | -67.39866 | 39907 ft | 438 kts | 250° |
| 2026-05-06 04:10 | -39.94852 | -67.46982 | 39935 ft | 439 kts | 251° |
| 2026-05-06 04:10 | -39.97445 | -67.54143 | 39918 ft | 439 kts | 251° |
| 2026-05-06 04:11 | -40.00051 | -67.61358 | 39916 ft | 440 kts | 251° |
| 2026-05-06 04:11 | -40.02651 | -67.68572 | 39910 ft | 440 kts | 251° |
| 2026-05-06 04:12 | -40.05248 | -67.75795 | 39914 ft | 439 kts | 251° |
| 2026-05-06 04:12 | -40.07839 | -67.83022 | 39913 ft | 439 kts | 251° |
| 2026-05-06 04:13 | -40.10424 | -67.90249 | 39910 ft | 439 kts | 251° |
| 2026-05-06 04:13 | -40.13004 | -67.97480 | 39912 ft | 439 kts | 251° |
| 2026-05-06 04:14 | -40.15575 | -68.04705 | 39904 ft | 439 kts | 251° |
| 2026-05-06 04:14 | -40.18144 | -68.11942 | 39907 ft | 439 kts | 251° |
| 2026-05-06 04:15 | -40.20708 | -68.19183 | 39929 ft | 438 kts | 251° |
| 2026-05-06 04:15 | -40.23267 | -68.26430 | 39917 ft | 439 kts | 251° |
| 2026-05-06 04:16 | -40.24549 | -68.30069 | 39796 ft | 442 kts | 251° |
| 2026-05-06 04:16 | -40.25839 | -68.33737 | 39416 ft | 443 kts | 251° |
| 2026-05-06 04:16 | -40.27109 | -68.37344 | 39077 ft | 441 kts | 251° |
| 2026-05-06 04:16 | -40.28390 | -68.40987 | 38629 ft | 440 kts | 251° |
| 2026-05-06 04:17 | -40.29668 | -68.44631 | 38061 ft | 440 kts | 251° |
| 2026-05-06 04:17 | -40.30943 | -68.48269 | 37488 ft | 439 kts | 251° |
| 2026-05-06 04:17 | -40.32212 | -68.51898 | 36941 ft | 439 kts | 251° |
| 2026-05-06 04:17 | -40.33483 | -68.55537 | 36415 ft | 440 kts | 251° |
| 2026-05-06 04:18 | -40.34762 | -68.59210 | 35915 ft | 446 kts | 251° |
| 2026-05-06 04:18 | -40.36056 | -68.62931 | 35394 ft | 451 kts | 251° |
| 2026-05-06 04:18 | -40.37362 | -68.66688 | 34892 ft | 454 kts | 251° |
| 2026-05-06 04:18 | -40.38674 | -68.70464 | 34396 ft | 456 kts | 251° |
| 2026-05-06 04:19 | -40.39991 | -68.74252 | 33901 ft | 457 kts | 251° |
| 2026-05-06 04:19 | -40.41306 | -68.78044 | 33352 ft | 458 kts | 251° |
| 2026-05-06 04:19 | -40.42624 | -68.81850 | 32799 ft | 458 kts | 251° |
| 2026-05-06 04:19 | -40.43945 | -68.85667 | 32245 ft | 459 kts | 251° |
| 2026-05-06 04:20 | -40.45266 | -68.89496 | 31715 ft | 464 kts | 251° |
| 2026-05-06 04:20 | -40.46601 | -68.93370 | 31192 ft | 466 kts | 250° |
| 2026-05-06 04:20 | -40.47934 | -68.97239 | 30664 ft | 463 kts | 250° |
| 2026-05-06 04:20 | -40.49252 | -69.01065 | 30144 ft | 459 kts | 250° |
| 2026-05-06 04:21 | -40.50562 | -69.04872 | 29584 ft | 456 kts | 250° |
| 2026-05-06 04:21 | -40.51861 | -69.08655 | 29000 ft | 453 kts | 250° |
| 2026-05-06 04:21 | -40.53151 | -69.12419 | 28428 ft | 450 kts | 250° |
| 2026-05-06 04:21 | -40.54430 | -69.16157 | 27860 ft | 447 kts | 250° |
| 2026-05-06 04:22 | -40.55699 | -69.19870 | 27323 ft | 443 kts | 250° |
| 2026-05-06 04:22 | -40.56954 | -69.23548 | 26785 ft | 440 kts | 250° |
| 2026-05-06 04:22 | -40.58200 | -69.27206 | 26243 ft | 436 kts | 250° |
| 2026-05-06 04:23 | -40.60652 | -69.34417 | 25208 ft | 428 kts | 250° |
| 2026-05-06 04:23 | -40.61860 | -69.37975 | 24706 ft | 424 kts | 250° |
| 2026-05-06 04:23 | -40.63055 | -69.41502 | 24215 ft | 420 kts | 250° |
| 2026-05-06 04:23 | -40.64239 | -69.44998 | 23727 ft | 416 kts | 250° |
| 2026-05-06 04:24 | -40.65411 | -69.48467 | 23209 ft | 413 kts | 250° |
| 2026-05-06 04:24 | -40.66573 | -69.51908 | 22646 ft | 409 kts | 250° |
| 2026-05-06 04:24 | -40.67721 | -69.55312 | 22093 ft | 406 kts | 250° |
| 2026-05-06 04:24 | -40.68861 | -69.58697 | 21549 ft | 402 kts | 250° |
| 2026-05-06 04:25 | -40.69991 | -69.62055 | 21011 ft | 399 kts | 250° |
| 2026-05-06 04:25 | -40.71097 | -69.65347 | 20491 ft | 397 kts | 250° |
| 2026-05-06 04:25 | -40.72225 | -69.68708 | 19961 ft | 394 kts | 250° |
| 2026-05-06 04:25 | -40.73330 | -69.72005 | 19458 ft | 392 kts | 250° |
| 2026-05-06 04:26 | -40.74426 | -69.75278 | 18963 ft | 390 kts | 250° |
| 2026-05-06 04:26 | -40.75516 | -69.78537 | 18470 ft | 387 kts | 250° |
| 2026-05-06 04:26 | -40.76587 | -69.81741 | 17956 ft | 380 kts | 250° |
| 2026-05-06 04:26 | -40.77646 | -69.84910 | 17396 ft | 374 kts | 250° |
| 2026-05-06 04:27 | -40.78676 | -69.87997 | 16869 ft | 370 kts | 250° |
| 2026-05-06 04:27 | -40.79707 | -69.91095 | 16328 ft | 367 kts | 250° |
| 2026-05-06 04:27 | -40.80741 | -69.94205 | 15786 ft | 363 kts | 250° |
| 2026-05-06 04:27 | -40.81736 | -69.97202 | 15279 ft | 361 kts | 251° |
| 2026-05-06 04:28 | -40.82739 | -70.00227 | 14771 ft | 358 kts | 251° |
| 2026-05-06 04:28 | -40.83736 | -70.03234 | 14270 ft | 356 kts | 251° |
| 2026-05-06 04:28 | -40.84726 | -70.06227 | 13773 ft | 355 kts | 251° |
| 2026-05-06 04:28 | -40.85710 | -70.09199 | 13249 ft | 352 kts | 251° |
| 2026-05-06 04:29 | -40.86686 | -70.12152 | 12710 ft | 349 kts | 250° |
| 2026-05-06 04:29 | -40.87652 | -70.15084 | 12160 ft | 347 kts | 250° |
| 2026-05-06 04:29 | -40.88610 | -70.17993 | 11652 ft | 345 kts | 249° |
| 2026-05-06 04:29 | -40.89568 | -70.20893 | 11131 ft | 343 kts | 249° |
| 2026-05-06 04:30 | -40.90521 | -70.23786 | 10617 ft | 343 kts | 249° |
| 2026-05-06 04:30 | -40.91472 | -70.26686 | 10137 ft | 343 kts | 250° |
| 2026-05-06 04:30 | -40.92410 | -70.29544 | 9911 ft | 335 kts | 250° |
| 2026-05-06 04:30 | -40.93320 | -70.32312 | 9839 ft | 321 kts | 250° |
| 2026-05-06 04:31 | -40.94204 | -70.35013 | 9832 ft | 319 kts | 250° |
| 2026-05-06 04:31 | -40.95084 | -70.37702 | 9837 ft | 318 kts | 250° |
| 2026-05-06 04:31 | -40.95963 | -70.40394 | 9843 ft | 319 kts | 250° |
| 2026-05-06 04:31 | -40.96844 | -70.43093 | 9842 ft | 319 kts | 250° |
| 2026-05-06 04:32 | -40.97829 | -70.45704 | 9832 ft | 318 kts | 239° |
| 2026-05-06 04:32 | -40.99210 | -70.48019 | 9849 ft | 323 kts | 232° |
| 2026-05-06 04:32 | -41.00697 | -70.50260 | 9856 ft | 325 kts | 232° |
| 2026-05-06 04:32 | -41.02174 | -70.52544 | 9846 ft | 327 kts | 233° |
| 2026-05-06 04:33 | -41.03629 | -70.54859 | 9726 ft | 327 kts | 232° |
| 2026-05-06 04:33 | -41.05042 | -70.57131 | 9153 ft | 309 kts | 232° |
| 2026-05-06 04:33 | -41.06358 | -70.59257 | 8532 ft | 290 kts | 233° |
| 2026-05-06 04:33 | -41.07599 | -70.61271 | 7937 ft | 276 kts | 233° |
| 2026-05-06 04:34 | -41.08793 | -70.63211 | 7341 ft | 269 kts | 233° |
| 2026-05-06 04:34 | -41.09973 | -70.65132 | 6781 ft | 273 kts | 234° |
| 2026-05-06 04:34 | -41.11099 | -70.66971 | 6426 ft | 276 kts | 234° |
| 2026-05-06 04:34 | -41.12299 | -70.68926 | 6246 ft | 270 kts | 234° |
| 2026-05-06 04:35 | -41.13488 | -70.70865 | 6199 ft | 271 kts | 234° |
| 2026-05-06 04:35 | -41.14677 | -70.72805 | 6203 ft | 271 kts | 234° |
| 2026-05-06 04:35 | -41.15848 | -70.74715 | 6196 ft | 270 kts | 234° |
| 2026-05-06 04:35 | -41.17045 | -70.76669 | 6197 ft | 269 kts | 234° |
| 2026-05-06 04:36 | -41.18208 | -70.78566 | 6198 ft | 264 kts | 234° |
| 2026-05-06 04:36 | -41.19336 | -70.80408 | 6202 ft | 251 kts | 234° |
| 2026-05-06 04:36 | -41.20401 | -70.82143 | 6189 ft | 234 kts | 234° |
| 2026-05-06 04:36 | -41.21397 | -70.83771 | 6203 ft | 224 kts | 235° |
| 2026-05-06 04:37 | -41.22370 | -70.85366 | 6193 ft | 221 kts | 235° |
| 2026-05-06 04:37 | -41.23328 | -70.86946 | 6199 ft | 214 kts | 238° |
| 2026-05-06 04:37 | -41.23838 | -70.88630 | 6190 ft | 186 kts | 271° |
| 2026-05-06 04:37 | -41.23576 | -70.90228 | 6206 ft | 174 kts | 290° |
| 2026-05-06 04:38 | -41.23207 | -70.91760 | 6191 ft | 173 kts | 289° |
| 2026-05-06 04:38 | -41.22831 | -70.93276 | 6192 ft | 173 kts | 292° |
| 2026-05-06 04:38 | -41.22379 | -70.94773 | 6035 ft | 175 kts | 295° |
| 2026-05-06 04:38 | -41.21891 | -70.96232 | 5783 ft | 173 kts | 295° |
| 2026-05-06 04:39 | -41.21393 | -70.97681 | 5570 ft | 171 kts | 297° |
| 2026-05-06 04:39 | -41.20899 | -70.99107 | 5329 ft | 169 kts | 296° |
| 2026-05-06 04:39 | -41.20410 | -71.00519 | 5124 ft | 169 kts | 296° |
| 2026-05-06 04:39 | -41.19916 | -71.01939 | 4899 ft | 170 kts | 296° |
| 2026-05-06 04:40 | -41.19422 | -71.03368 | 4632 ft | 171 kts | 295° |
| 2026-05-06 04:40 | -41.18924 | -71.04804 | 4363 ft | 171 kts | 294° |
| 2026-05-06 04:40 | -41.18445 | -71.06184 | 4113 ft | 157 kts | 293° |
| 2026-05-06 04:40 | -41.18004 | -71.07452 | 3908 ft | 146 kts | 292° |
| 2026-05-06 04:41 | -41.17587 | -71.08660 | 3724 ft | 142 kts | 292° |
| 2026-05-06 04:41 | -41.17171 | -71.09858 | 3546 ft | 144 kts | 292° |
| 2026-05-06 04:41 | -41.16751 | -71.11068 | 3368 ft | 144 kts | 292° |
| 2026-05-06 04:41 | -41.16331 | -71.12276 | 3187 ft | 144 kts | 293° |
| 2026-05-06 04:42 | -41.15913 | -71.13478 | 2990 ft | 142 kts | 292° |
| 2026-05-06 04:42 | -41.15498 | -71.14684 | 2786 ft | 145 kts | 293° |
| 2026-05-06 04:42 | -41.15140 | -71.15710 | 2763 ft | 63 kts | 295° |
| 2026-05-06 04:42 | -41.15033 | -71.16018 | 2763 ft | 27 kts | 294° |
| 2026-05-06 04:43 | -41.14976 | -71.16182 | 2762 ft | 21 kts | 295° |
| 2026-05-06 04:43 | -41.14897 | -71.16330 | 2760 ft | 16 kts | 348° |
| 2026-05-06 04:43 | -41.14817 | -71.16301 | 2758 ft | 9 kts | 25° |
| 2026-05-06 04:43 | -41.14749 | -71.16249 | 2758 ft | 11 kts | 30° |
| 2026-05-06 04:44 | -41.14683 | -71.16206 | 2758 ft | 10 kts | 25° |
| 2026-05-06 04:44 | -41.14659 | -71.16192 | 2758 ft | 0 kts | 25° |